Time;durP1;ratioP1;P1;durP2;ratioP2;P2;SDS_P1;SDS_P2;PMS_P1;PMS_P2;Temp;Humidity;BMP_temperature;BMP_pressure;BME280_temperature;BME280_humidity;BME280_pressure;Samples;Min_cycle;Max_cycle;Signal;HPM_P1;HPM_P2
2022/03/17 00:01:09;;;;;;;27.70;25.37;;;12.10;46.20;;;;;;20597;6808;277136;-76
2022/03/17 00:03:35;;;;;;;27.40;25.20;;;12.40;45.00;;;;;;20621;6808;281967;-75
2022/03/17 00:06:00;;;;;;;28.73;26.43;;;12.30;45.00;;;;;;20626;6808;282008;-73
2022/03/17 00:08:27;;;;;;;27.40;25.00;;;12.50;44.70;;;;;;20623;6808;291607;-72
2022/03/17 00:10:52;;;;;;;27.73;25.60;;;12.50;44.70;;;;;;20621;6808;292399;-73
2022/03/17 00:13:19;;;;;;;25.43;23.13;;;12.20;44.80;;;;;;20816;6808;118250;-73
2022/03/17 00:15:45;;;;;;;28.73;26.35;;;12.20;44.70;;;;;;20622;6808;335802;-75
2022/03/17 00:18:11;;;;;;;28.83;26.33;;;12.20;45.00;;;;;;20623;6808;306794;-72
2022/03/17 00:20:37;;;;;;;24.57;22.37;;;12.10;45.90;;;;;;20839;6808;118419;-72
2022/03/17 00:23:03;;;;;;;24.17;22.07;;;12.10;45.00;;;;;;20830;6808;117329;-75
2022/03/17 00:25:29;;;;;;;23.92;21.73;;;11.80;45.60;;;;;;20820;6808;121087;-73
2022/03/17 00:27:54;;;;;;;25.65;23.35;;;11.50;46.10;;;;;;20829;6808;117542;-73
2022/03/17 00:30:19;;;;;;;26.23;24.08;;;11.30;46.50;;;;;;20621;6808;310165;-75
2022/03/17 00:32:45;;;;;;;24.97;22.77;;;11.40;47.00;;;;;;20838;6808;121255;-75
2022/03/17 00:37:56;;;;;;;25.93;23.50;;;11.20;46.80;;;;;;20834;6808;118011;-72
2022/03/17 00:40:23;;;;;;;25.77;23.47;;;11.00;47.00;;;;;;20835;6808;117467;-73
2022/03/17 00:42:47;;;;;;;25.75;23.33;;;10.80;47.30;;;;;;20829;6808;117444;-73
2022/03/17 00:45:13;;;;;;;25.03;22.83;;;10.60;47.50;;;;;;20815;6808;121368;-73
2022/03/17 00:47:38;;;;;;;29.50;26.80;;;10.50;47.70;;;;;;20622;6808;340753;-73
2022/03/17 00:50:04;;;;;;;31.08;28.33;;;10.70;48.20;;;;;;20615;6808;307421;-74
2022/03/17 00:52:30;;;;;;;29.67;27.23;;;11.10;47.80;;;;;;20621;6808;278386;-76
2022/03/17 00:54:55;;;;;;;30.53;27.90;;;11.40;47.20;;;;;;20635;6808;277943;-72
2022/03/17 00:57:22;;;;;;;29.15;26.75;;;11.70;46.30;;;;;;20604;6808;308211;-72
2022/03/17 00:59:49;;;;;;;28.13;25.57;;;11.70;46.30;;;;;;20850;6808;119492;-73
2022/03/17 01:02:13;;;;;;;30.60;28.10;;;11.50;46.40;;;;;;20623;6807;306781;-75
2022/03/17 01:04:38;;;;;;;30.30;27.90;;;11.50;46.70;;;;;;20629;6808;306994;-76
2022/03/17 01:07:04;;;;;;;26.30;23.92;;;11.50;46.70;;;;;;20841;6808;117727;-75
2022/03/17 01:09:30;;;;;;;27.10;24.70;;;11.50;46.70;;;;;;20821;6808;121527;-73
2022/03/17 01:11:56;;;;;;;26.80;24.10;;;11.20;47.10;;;;;;20779;6808;119638;-74
2022/03/17 01:14:21;;;;;;;26.83;24.43;;;11.00;47.50;;;;;;20825;6808;117553;-73
2022/03/17 01:16:48;;;;;;;29.73;26.93;;;10.90;48.40;;;;;;20589;6808;340523;-73
2022/03/17 01:19:14;;;;;;;32.25;29.60;;;11.30;48.10;;;;;;20590;6808;321013;-76
2022/03/17 01:21:39;;;;;;;29.17;26.87;;;11.30;48.10;;;;;;20624;6808;303744;-74
2022/03/17 01:24:06;;;;;;;26.00;23.37;;;11.50;48.10;;;;;;20835;6808;117972;-73
2022/03/17 01:26:31;;;;;;;31.60;28.90;;;11.50;47.40;;;;;;20620;6808;295718;-76
2022/03/17 01:28:58;;;;;;;28.33;25.73;;;11.40;47.40;;;;;;20842;6808;117980;-74
2022/03/17 01:31:24;;;;;;;26.60;24.20;;;11.40;47.30;;;;;;20816;6808;121314;-75
2022/03/17 01:33:49;;;;;;;30.40;27.87;;;11.20;47.70;;;;;;20627;6808;277110;-72
2022/03/17 01:36:15;;;;;;;30.40;27.92;;;11.50;47.70;;;;;;20620;6808;336035;-72
2022/03/17 01:38:41;;;;;;;28.47;25.77;;;11.50;47.70;;;;;;20839;6808;117570;-73
2022/03/17 01:41:07;;;;;;;28.73;26.03;;;11.20;47.80;;;;;;20835;6808;117564;-74
2022/03/17 01:43:32;;;;;;;31.37;28.77;;;11.20;47.80;;;;;;20452;6808;307970;-73
2022/03/17 01:45:58;;;;;;;32.43;29.73;;;11.30;48.10;;;;;;20627;6808;332112;-77
2022/03/17 01:48:24;;;;;;;31.93;29.13;;;11.60;47.70;;;;;;20633;6808;282989;-73
2022/03/17 01:50:49;;;;;;;26.23;23.93;;;11.80;47.10;;;;;;20834;6808;117561;-73
2022/03/17 01:53:15;;;;;;;32.33;29.63;;;11.70;47.10;;;;;;20592;6808;304907;-73
2022/03/17 01:55:41;;;;;;;31.40;28.90;;;11.90;47.00;;;;;;20623;6808;306975;-75
2022/03/17 01:58:07;;;;;;;28.13;25.63;;;11.90;47.00;;;;;;20825;6808;117568;-76
2022/03/17 02:00:33;;;;;;;27.33;24.75;;;11.40;48.10;;;;;;20832;6808;117593;-75
2022/03/17 02:02:58;;;;;;;31.53;28.57;;;11.40;47.40;;;;;;20613;6808;311907;-73
2022/03/17 02:05:25;;;;;;;27.93;25.23;;;11.30;47.60;;;;;;20816;6808;122083;-72
2022/03/17 02:07:54;;;;;;;30.07;27.47;;;11.30;47.60;;;;;;20624;6808;281982;-74
2022/03/17 02:10:19;;;;;;;33.33;30.57;;;11.40;47.60;;;;;;20618;6808;277505;-76
2022/03/17 02:15:34;;;;;;;32.47;29.77;;;12.00;47.10;;;;;;20601;6808;311867;-72
2022/03/17 02:18:00;;;;;;;26.53;24.13;;;12.00;46.60;;;;;;20833;6808;117877;-75
2022/03/17 02:20:26;;;;;;;28.05;25.48;;;11.80;46.70;;;;;;20819;6808;121644;-73
2022/03/17 02:22:51;;;;;;;28.80;25.97;;;11.40;47.20;;;;;;20825;6808;117469;-73
2022/03/17 02:25:36;;;;;;;32.30;29.47;;;11.20;47.70;;;;;;20601;6808;292432;-73
2022/03/17 02:28:06;;;;;;;33.17;30.20;;;11.30;48.10;;;;;;20625;6808;282031;-73
2022/03/17 02:30:31;;;;;;;28.90;26.17;;;11.60;47.30;;;;;;20829;6808;117872;-72
2022/03/17 02:32:59;;;;;;;33.73;30.80;;;11.50;47.40;;;;;;20605;6808;324521;-72
2022/03/17 02:35:25;;;;;;;29.53;26.93;;;11.50;47.40;;;;;;20812;6808;120785;-73
2022/03/17 02:37:50;;;;;;;32.45;29.60;;;11.40;47.30;;;;;;20625;6808;307402;-72
2022/03/17 02:40:16;;;;;;;31.57;28.97;;;11.70;47.20;;;;;;20624;6808;278015;-72
2022/03/17 02:42:42;;;;;;;30.00;27.30;;;11.70;47.20;;;;;;20828;6808;117473;-73
2022/03/17 02:45:10;;;;;;;32.97;30.27;;;11.60;47.50;;;;;;20599;6808;309323;-72
2022/03/17 02:47:34;;;;;;;28.70;26.13;;;11.60;47.50;;;;;;20825;6808;117452;-73
2022/03/17 02:50:00;;;;;;;29.00;25.90;;;11.20;47.70;;;;;;20830;6808;117583;-72
2022/03/17 02:52:26;;;;;;;27.27;24.77;;;11.10;47.60;;;;;;20832;6808;117534;-74
2022/03/17 02:54:51;;;;;;;26.63;24.03;;;10.90;48.30;;;;;;20826;6808;117501;-74
2022/03/17 02:57:18;;;;;;;33.17;30.37;;;11.00;48.60;;;;;;20596;6808;332606;-72
2022/03/17 02:59:46;;;;;;;33.92;31.12;;;11.00;48.60;;;;;;20610;6808;305851;-72
2022/03/17 03:02:10;;;;;;;34.57;31.67;;;11.30;47.80;;;;;;20623;6808;307445;-74
2022/03/17 03:04:38;;;;;;;29.60;26.83;;;11.60;47.60;;;;;;20845;6808;117739;-73
2022/03/17 03:07:04;;;;;;;29.73;26.97;;;11.50;47.10;;;;;;20839;6808;119088;-73
2022/03/17 03:09:30;;;;;;;32.38;29.63;;;11.30;47.90;;;;;;20608;6808;282340;-74
2022/03/17 03:11:56;;;;;;;28.87;26.13;;;11.30;47.90;;;;;;20825;6808;117478;-76
2022/03/17 03:14:21;;;;;;;33.67;30.88;;;11.30;47.80;;;;;;20623;6808;312240;-72
2022/03/17 03:16:47;;;;;;;34.10;31.20;;;11.40;48.10;;;;;;20615;6808;307337;-73
2022/03/17 03:19:12;;;;;;;34.83;31.80;;;11.70;47.60;;;;;;20602;6808;277926;-75
2022/03/17 03:21:38;;;;;;;28.60;26.00;;;11.90;46.70;;;;;;20834;6808;117429;-72
2022/03/17 03:24:04;;;;;;;31.73;29.13;;;11.80;46.80;;;;;;20626;6808;306786;-72
2022/03/17 03:26:30;;;;;;;32.43;29.43;;;11.80;48.00;;;;;;20843;6807;117391;-73
2022/03/17 03:28:55;;;;;;;31.63;28.53;;;11.60;48.00;;;;;;20833;6808;117504;-73
2022/03/17 03:31:20;;;;;;;26.48;24.05;;;11.40;47.50;;;;;;20821;6808;118582;-72
2022/03/17 03:33:46;;;;;;;28.17;25.50;;;11.10;47.80;;;;;;20830;6808;117178;-72
2022/03/17 03:38:57;;;;;;;31.80;28.80;;;11.10;48.30;;;;;;20834;6808;121527;-73
2022/03/17 03:41:22;;;;;;;35.85;32.55;;;11.10;48.00;;;;;;20600;6808;311852;-73
2022/03/17 03:43:48;;;;;;;31.27;28.17;;;11.20;47.40;;;;;;20827;6808;117604;-73
2022/03/17 03:46:14;;;;;;;33.30;28.92;;;11.20;47.30;;;;;;20819;6808;117450;-75
2022/03/17 03:48:39;;;;;;;28.55;25.83;;;11.10;48.10;;;;;;20832;6808;117417;-73
2022/03/17 03:51:05;;;;;;;36.23;32.73;;;10.90;48.40;;;;;;20601;6808;312535;-73
2022/03/17 03:54:13;;;;;;;35.47;32.38;;;11.10;48.60;;;;;;20600;6808;278014;-73
2022/03/17 03:55:56;;;;;;;36.30;33.10;;;11.80;47.80;;;;;;20546;6808;277747;-73
2022/03/17 03:58:22;;;;;;;33.20;30.43;;;11.80;47.80;;;;;;20604;6808;306598;-74
2022/03/17 04:00:48;;;;;;;35.03;32.08;;;12.00;47.40;;;;;;20617;6808;312298;-75
2022/03/17 04:03:15;;;;;;;28.95;26.25;;;12.20;46.60;;;;;;20797;6808;117617;-72
2022/03/17 04:05:39;;;;;;;33.33;30.53;;;12.00;46.70;;;;;;20608;6808;335719;-72
2022/03/17 04:08:04;;;;;;;36.23;33.03;;;11.90;47.40;;;;;;20625;6808;306980;-71
2022/03/17 04:10:30;;;;;;;31.85;28.95;;;12.10;46.80;;;;;;20837;6808;117539;-72
2022/03/17 04:12:56;;;;;;;35.03;32.03;;;11.90;47.20;;;;;;20625;6808;277502;-72
2022/03/17 04:15:22;;;;;;;33.03;29.80;;;11.90;47.20;;;;;;20822;6808;121893;-73
2022/03/17 04:17:49;;;;;;;31.55;28.55;;;11.80;47.20;;;;;;20840;6808;117603;-75
2022/03/17 04:20:13;;;;;;;32.15;28.85;;;11.50;47.60;;;;;;20827;6808;117787;-72
2022/03/17 04:22:38;;;;;;;32.30;29.17;;;11.20;47.80;;;;;;20841;6808;117971;-72
2022/03/17 04:25:04;;;;;;;28.60;25.70;;;11.00;48.00;;;;;;20836;6808;117946;-71
2022/03/17 04:27:32;;;;;;;34.90;31.90;;;10.80;48.20;;;;;;20600;6808;277987;-75
2022/03/17 04:29:58;;;;;;;36.72;33.22;;;11.00;48.40;;;;;;20619;6808;341179;-75
2022/03/17 04:32:24;;;;;;;29.63;26.87;;;11.40;47.60;;;;;;20844;6808;117626;-76
2022/03/17 04:34:51;;;;;;;32.63;29.53;;;11.30;47.50;;;;;;20845;6808;117874;-76
2022/03/17 04:37:16;;;;;;;30.67;27.67;;;11.10;47.80;;;;;;20812;6806;117757;-75
2022/03/17 04:39:42;;;;;;;36.33;33.10;;;10.90;48.10;;;;;;20629;6808;311462;-76
2022/03/17 04:42:09;;;;;;;32.17;29.00;;;11.10;48.10;;;;;;20837;6808;121573;-75
2022/03/17 04:44:35;;;;;;;37.58;34.30;;;11.10;48.00;;;;;;20622;6808;284823;-75
2022/03/17 04:47:00;;;;;;;36.67;33.47;;;11.20;48.00;;;;;;20620;6808;310712;-74
2022/03/17 04:49:25;;;;;;;36.37;33.23;;;11.50;47.10;;;;;;20604;6808;306250;-74
2022/03/17 04:51:51;;;;;;;33.55;30.10;;;11.70;46.90;;;;;;20839;6808;117559;-73
2022/03/17 04:54:16;;;;;;;31.57;28.47;;;11.60;46.90;;;;;;20842;6808;117708;-75
2022/03/17 04:56:42;;;;;;;37.17;33.90;;;11.30;47.10;;;;;;20635;6808;285105;-72
2022/03/17 04:59:08;;;;;;;40.20;36.70;;;11.40;47.80;;;;;;20606;6808;290069;-75
2022/03/17 05:01:33;;;;;;;39.10;35.50;;;11.60;46.80;;;;;;20624;6808;336459;-74
2022/03/17 05:03:59;;;;;;;36.80;33.23;;;11.80;46.20;;;;;;20838;6808;117576;-74
2022/03/17 05:06:26;;;;;;;37.97;34.67;;;11.70;46.30;;;;;;20625;6808;341048;-74
2022/03/17 05:08:51;;;;;;;36.03;32.60;;;11.70;46.10;;;;;;20842;6808;117409;-74
2022/03/17 05:11:19;;;;;;;35.08;31.67;;;11.60;46.20;;;;;;20824;6808;122258;-73
2022/03/17 05:13:44;;;;;;;37.77;34.47;;;11.30;46.60;;;;;;20627;6808;307042;-74
2022/03/17 05:16:10;;;;;;;39.97;36.37;;;11.70;46.20;;;;;;20619;6808;339559;-74
2022/03/17 05:18:35;;;;;;;37.30;33.50;;;11.70;46.20;;;;;;20839;6808;119280;-73
2022/03/17 05:21:01;;;;;;;33.70;30.30;;;11.60;46.00;;;;;;20836;6808;117531;-74
2022/03/17 05:23:27;;;;;;;31.67;28.48;;;11.10;46.80;;;;;;20797;6808;121147;-74
2022/03/17 05:25:53;;;;;;;32.03;29.00;;;11.00;46.70;;;;;;20834;6808;117634;-74
2022/03/17 05:28:19;;;;;;;30.50;27.50;;;10.70;47.50;;;;;;20841;6808;117238;-74
2022/03/17 05:30:45;;;;;;;29.70;26.70;;;10.70;47.50;;;;;;20819;6808;118109;-74
2022/03/17 05:33:11;;;;;;;35.77;32.57;;;10.60;47.80;;;;;;20612;6808;287493;-75
2022/03/17 05:35:36;;;;;;;33.67;30.35;;;10.80;49.40;;;;;;20843;6808;118121;-78
2022/03/17 05:38:02;;;;;;;31.30;28.27;;;10.70;48.50;;;;;;20809;6808;118374;-74
2022/03/17 05:40:28;;;;;;;31.93;28.70;;;10.70;48.50;;;;;;20830;6808;117576;-73
2022/03/17 05:42:54;;;;;;;33.83;30.53;;;10.50;48.60;;;;;;20830;6808;118445;-72
2022/03/17 05:45:20;;;;;;;32.47;29.13;;;10.40;48.70;;;;;;20805;6808;118304;-72
2022/03/17 05:47:48;;;;;;;31.97;28.73;;;10.20;49.00;;;;;;20831;6806;118173;-72
2022/03/17 05:50:14;;;;;;;31.47;28.27;;;10.20;49.00;;;;;;20830;6808;117726;-71
2022/03/17 05:52:39;;;;;;;35.47;31.53;;;10.20;49.20;;;;;;20818;6808;118461;-71
2022/03/17 05:55:05;;;;;;;39.67;35.90;;;10.10;49.20;;;;;;20617;6808;323864;-71
2022/03/17 05:57:31;;;;;;;42.63;38.43;;;10.40;49.70;;;;;;20615;6808;338155;-72
2022/03/17 05:59:57;;;;;;;39.78;36.08;;;10.80;49.00;;;;;;20638;6808;277226;-73
2022/03/17 06:02:23;;;;;;;38.57;35.17;;;11.10;48.90;;;;;;20638;6808;308455;-72
2022/03/17 06:04:49;;;;;;;36.63;32.93;;;11.40;47.40;;;;;;20845;6808;118754;-72
2022/03/17 06:07:14;;;;;;;33.10;29.80;;;11.30;47.30;;;;;;20802;6808;119556;-73
2022/03/17 06:09:40;;;;;;;33.92;30.52;;;11.10;47.80;;;;;;20836;6808;121441;-72
2022/03/17 06:12:06;;;;;;;33.90;30.50;;;10.70;49.20;;;;;;20834;6808;117453;-72
2022/03/17 06:14:33;;;;;;;34.03;30.53;;;10.70;48.50;;;;;;20838;6808;117458;-72
2022/03/17 06:16:59;;;;;;;38.30;34.97;;;10.60;49.40;;;;;;20622;6808;286959;-71
2022/03/17 06:19:24;;;;;;;37.63;34.27;;;10.80;48.90;;;;;;20609;6808;277576;-71
2022/03/17 06:21:51;;;;;;;38.67;35.17;;;11.20;49.00;;;;;;20628;6808;345757;-70
2022/03/17 06:24:17;;;;;;;39.30;35.70;;;11.50;47.80;;;;;;20622;6808;277598;-70
2022/03/17 06:26:42;;;;;;;35.00;31.73;;;11.70;47.30;;;;;;20837;6808;117485;-70
2022/03/17 06:29:08;;;;;;;34.57;31.03;;;11.60;47.30;;;;;;20811;6808;117952;-73
2022/03/17 06:31:36;;;;;;;30.27;27.15;;;11.30;47.60;;;;;;20834;6808;117816;-72
2022/03/17 06:33:59;;;;;;;33.63;30.33;;;11.10;48.00;;;;;;20815;6808;121609;-73
2022/03/17 06:36:26;;;;;;;34.70;31.10;;;10.80;48.10;;;;;;20839;6808;117399;-74
2022/03/17 06:38:50;;;;;;;37.63;34.33;;;10.70;48.30;;;;;;20619;6808;307236;-72
2022/03/17 06:41:16;;;;;;;35.05;31.37;;;11.00;48.80;;;;;;20819;6808;122887;-71
2022/03/17 06:43:42;;;;;;;33.03;29.80;;;11.00;48.20;;;;;;20836;6808;121548;-72
2022/03/17 06:46:08;;;;;;;32.17;28.77;;;10.80;48.50;;;;;;20838;6808;118379;-74
2022/03/17 06:48:35;;;;;;;33.13;29.63;;;10.80;48.50;;;;;;20829;6808;118166;-72
2022/03/17 06:51:01;;;;;;;34.00;30.43;;;10.70;48.60;;;;;;20829;6808;117513;-72
2022/03/17 06:53:26;;;;;;;37.97;34.58;;;10.60;48.70;;;;;;20596;6808;308281;-72
2022/03/17 06:55:53;;;;;;;25.12;22.67;;;10.80;48.70;;;;;;20832;6808;120305;-70
2022/03/17 06:58:19;;;;;;;30.90;27.80;;;10.90;49.50;;;;;;20827;6808;117228;-70
2022/03/17 07:00:45;;;;;;;33.37;29.87;;;10.90;48.90;;;;;;20840;6807;117362;-70
2022/03/17 07:03:10;;;;;;;34.57;30.87;;;10.90;49.00;;;;;;20812;6808;117381;-73
2022/03/17 07:05:36;;;;;;;40.22;36.65;;;10.80;49.00;;;;;;20620;6808;335993;-73
2022/03/17 07:08:01;;;;;;;34.93;31.33;;;11.10;49.00;;;;;;20840;6808;118200;-73
2022/03/17 07:10:27;;;;;;;39.70;36.00;;;11.10;48.50;;;;;;20621;6808;293972;-72
2022/03/17 07:12:53;;;;;;;40.97;36.97;;;11.40;48.50;;;;;;20621;6808;277582;-73
2022/03/17 07:15:19;;;;;;;40.12;36.58;;;11.70;47.70;;;;;;20591;6808;307731;-72
2022/03/17 07:17:45;;;;;;;35.67;32.27;;;11.90;47.00;;;;;;20834;6808;118294;-72
2022/03/17 07:20:12;;;;;;;34.63;31.33;;;11.90;46.90;;;;;;20832;6808;121663;-73
2022/03/17 07:22:39;;;;;;;34.90;31.33;;;11.60;47.20;;;;;;20837;6808;120565;-73
2022/03/17 07:25:04;;;;;;;34.03;30.57;;;11.50;48.00;;;;;;20838;6808;123243;-72
2022/03/17 07:27:31;;;;;;;38.47;35.05;;;11.30;47.80;;;;;;20605;6808;306728;-73
2022/03/17 07:29:55;;;;;;;39.33;35.67;;;11.50;47.60;;;;;;20621;6808;278689;-72
2022/03/17 07:32:24;;;;;;;40.75;37.05;;;12.10;46.30;;;;;;20623;6808;307539;-73
2022/03/17 07:34:46;;;;;;;40.97;37.20;;;12.10;46.30;;;;;;20603;6808;307074;-70
2022/03/17 07:37:12;;;;;;;40.43;36.73;;;12.40;45.90;;;;;;20598;6808;307417;-72
2022/03/17 07:39:38;;;;;;;34.38;30.80;;;12.60;45.60;;;;;;20834;6808;118100;-72
2022/03/17 07:42:04;;;;;;;31.83;28.63;;;12.20;46.40;;;;;;20838;6808;118415;-72
2022/03/17 07:44:30;;;;;;;30.47;27.30;;;12.10;46.30;;;;;;20836;6808;117545;-72
2022/03/17 07:46:56;;;;;;;34.33;31.27;;;12.00;47.60;;;;;;20620;6808;307581;-71
2022/03/17 07:49:21;;;;;;;31.07;28.03;;;12.00;47.60;;;;;;20816;6808;118738;-71
2022/03/17 07:51:47;;;;;;;34.83;31.60;;;12.00;47.50;;;;;;20606;6808;307000;-71
2022/03/17 07:54:14;;;;;;;36.08;32.78;;;12.10;47.60;;;;;;20613;6808;336569;-71
2022/03/17 07:56:40;;;;;;;36.20;33.10;;;12.60;46.10;;;;;;20614;6808;277202;-71
2022/03/17 07:59:08;;;;;;;25.20;22.90;;;12.90;47.10;;;;;;20608;6808;336504;-71
2022/03/17 08:01:34;;;;;;;20.87;19.07;;;12.80;46.90;;;;;;20820;6808;117701;-71
2022/03/17 08:03:59;;;;;;;24.70;22.37;;;12.70;47.00;;;;;;20625;6808;281721;-71
2022/03/17 08:06:25;;;;;;;21.65;19.50;;;12.60;48.10;;;;;;20832;6808;117670;-71
2022/03/17 08:08:50;;;;;;;25.02;22.62;;;12.40;48.00;;;;;;20618;6808;340460;-70
2022/03/17 08:11:16;;;;;;;25.70;23.40;;;12.50;48.40;;;;;;20598;6807;277861;-71
2022/03/17 08:13:41;;;;;;;23.63;21.23;;;12.60;48.10;;;;;;20837;6808;117548;-70
2022/03/17 08:16:09;;;;;;;28.93;26.13;;;12.50;48.00;;;;;;20622;6808;337049;-70
2022/03/17 08:18:34;;;;;;;29.47;26.60;;;12.40;48.00;;;;;;20614;6808;306394;-71
2022/03/17 08:20:58;;;;;;;26.17;23.73;;;12.60;47.50;;;;;;20828;6808;118196;-71
2022/03/17 08:23:24;;;;;;;25.50;22.42;;;12.40;47.40;;;;;;20814;6808;118599;-71
2022/03/17 08:25:49;;;;;;;29.80;26.93;;;12.10;47.80;;;;;;20617;6808;307675;-71
2022/03/17 08:28:17;;;;;;;28.27;25.37;;;12.20;48.20;;;;;;20832;6808;117884;-71
2022/03/17 08:30:40;;;;;;;29.90;27.20;;;12.10;48.00;;;;;;20617;6808;306984;-71
2022/03/17 08:33:06;;;;;;;28.12;25.23;;;12.20;48.00;;;;;;20836;6808;117474;-73
2022/03/17 08:35:31;;;;;;;31.83;28.97;;;12.20;47.90;;;;;;20603;6808;278015;-71
2022/03/17 08:37:57;;;;;;;31.97;28.83;;;12.30;47.80;;;;;;20841;6808;118366;-71
2022/03/17 08:40:23;;;;;;;33.43;30.37;;;12.40;47.80;;;;;;20625;6808;307734;-71
2022/03/17 08:42:49;;;;;;;33.40;30.33;;;12.30;47.70;;;;;;20625;6808;287321;-71
2022/03/17 08:50:47;;;;;;;35.72;32.35;;;12.80;46.60;;;;;;20622;6808;278071;-72
2022/03/17 08:53:12;;;;;;;32.63;29.63;;;12.80;46.60;;;;;;20595;6808;282378;-71
2022/03/17 08:55:37;;;;;;;33.15;30.25;;;13.00;46.10;;;;;;20612;6808;306329;-71
2022/03/17 08:58:03;;;;;;;28.33;25.63;;;13.20;46.00;;;;;;20828;6808;122210;-72
2022/03/17 09:00:31;;;;;;;29.12;26.62;;;13.00;46.20;;;;;;20617;6808;277315;-71
2022/03/17 09:02:55;;;;;;;29.30;26.60;;;13.00;46.50;;;;;;20813;6808;117504;-71
2022/03/17 09:05:19;;;;;;;28.13;25.43;;;12.90;46.60;;;;;;20800;6808;117552;-72
2022/03/17 09:07:45;;;;;;;27.33;24.67;;;12.60;47.00;;;;;;20832;6808;118566;-71
2022/03/17 09:10:10;;;;;;;30.92;28.20;;;12.40;47.30;;;;;;20600;6808;337413;-71
2022/03/17 09:12:38;;;;;;;28.87;26.15;;;12.60;47.30;;;;;;20838;6808;117556;-72
2022/03/17 09:15:02;;;;;;;29.03;26.20;;;12.60;47.20;;;;;;20824;6808;117428;-71
2022/03/17 09:17:27;;;;;;;34.57;31.30;;;12.50;47.40;;;;;;20601;6808;283751;-71
2022/03/17 09:19:53;;;;;;;29.47;26.60;;;12.60;46.60;;;;;;20823;6808;117707;-71
2022/03/17 09:22:19;;;;;;;45.08;40.90;;;12.60;46.60;;;;;;20606;6807;336477;-72
2022/03/17 09:24:48;;;;;;;46.30;41.37;;;12.70;46.30;;;;;;20827;6808;118056;-72
2022/03/17 09:27:10;;;;;;;46.70;42.43;;;12.80;46.40;;;;;;20588;6808;335669;-72
2022/03/17 09:29:38;;;;;;;38.33;34.93;;;12.90;46.50;;;;;;20626;6808;278017;-72
2022/03/17 09:32:01;;;;;;;33.30;30.10;;;13.20;45.70;;;;;;20825;6808;117483;-72
2022/03/17 09:34:26;;;;;;;34.77;31.67;;;13.20;45.50;;;;;;20622;6808;308189;-72
2022/03/17 09:36:52;;;;;;;36.23;32.90;;;13.30;45.50;;;;;;20618;6808;305475;-71
2022/03/17 09:42:03;;;;;;;31.00;27.93;;;13.80;45.00;;;;;;20831;6808;121278;-70
2022/03/17 09:44:29;;;;;;;37.10;33.70;;;13.60;45.10;;;;;;20614;6808;306696;-70
2022/03/17 09:46:55;;;;;;;36.40;33.00;;;13.60;45.20;;;;;;20618;6808;308990;-71
2022/03/17 09:49:20;;;;;;;36.40;33.30;;;13.80;45.00;;;;;;20579;6808;277971;-71
2022/03/17 09:51:46;;;;;;;36.92;33.65;;;14.00;45.00;;;;;;20596;6808;299236;-70
2022/03/17 09:54:12;;;;;;;32.20;29.20;;;14.10;44.60;;;;;;20810;6808;117454;-70
2022/03/17 09:56:38;;;;;;;32.87;29.60;;;14.00;44.70;;;;;;20802;6808;117882;-71
2022/03/17 09:59:06;;;;;;;31.40;28.30;;;13.70;45.20;;;;;;20813;6808;117434;-70
2022/03/17 10:01:29;;;;;;;32.15;29.10;;;13.40;45.70;;;;;;20802;6808;119839;-72
2022/03/17 10:03:59;;;;;;;31.77;28.50;;;13.00;46.50;;;;;;20837;6808;117838;-70
2022/03/17 10:06:24;;;;;;;31.17;28.13;;;13.00;46.50;;;;;;20827;6808;120958;-70
2022/03/17 10:08:49;;;;;;;35.45;30.65;;;12.90;47.00;;;;;;20826;6808;117423;-70
2022/03/17 10:11:18;;;;;;;38.03;34.63;;;12.80;47.20;;;;;;20590;6808;306592;-70
2022/03/17 10:13:42;;;;;;;34.93;31.53;;;13.20;47.40;;;;;;20808;6808;118023;-70
2022/03/17 10:16:10;;;;;;;37.43;34.20;;;13.10;47.30;;;;;;20593;6808;286671;-70
2022/03/17 10:18:37;;;;;;;38.00;34.70;;;13.40;47.00;;;;;;20600;6808;277630;-70
2022/03/17 10:21:08;;;;;;;34.53;31.30;;;13.70;46.30;;;;;;20833;6808;117781;-70
2022/03/17 10:23:35;;;;;;;39.70;36.17;;;13.70;46.20;;;;;;20610;6808;307514;-73
2022/03/17 10:25:59;;;;;;;37.75;34.45;;;13.80;45.70;;;;;;20584;6808;341112;-71
2022/03/17 10:28:26;;;;;;;33.28;30.08;;;14.00;45.00;;;;;;20832;6808;121914;-71
2022/03/17 10:30:53;;;;;;;36.53;33.27;;;13.90;45.00;;;;;;20619;6808;281771;-71
2022/03/17 10:33:20;;;;;;;36.40;33.20;;;13.90;45.40;;;;;;20511;6808;296289;-71
2022/03/17 10:35:46;;;;;;;32.78;29.80;;;14.10;44.90;;;;;;20834;6807;117594;-70
2022/03/17 10:38:16;;;;;;;32.95;29.73;;;14.00;45.00;;;;;;20829;6808;118320;-70
2022/03/17 10:40:41;;;;;;;32.40;29.23;;;13.80;45.40;;;;;;20821;6808;118739;-70
2022/03/17 10:43:14;;;;;;;31.90;28.85;;;13.60;45.80;;;;;;20832;6808;117886;-72
2022/03/17 10:45:39;;;;;;;33.50;30.50;;;13.40;46.10;;;;;;20587;6808;341072;-69
2022/03/17 10:48:05;;;;;;;34.87;31.77;;;13.60;46.30;;;;;;20623;6808;309117;-68
2022/03/17 10:50:30;;;;;;;30.05;27.25;;;14.00;45.80;;;;;;20829;6808;117464;-71
2022/03/17 10:53:00;;;;;;;30.63;27.60;;;14.00;45.60;;;;;;20808;6808;118703;-67
2022/03/17 10:55:31;;;;;;;36.07;32.77;;;13.80;45.80;;;;;;20593;6808;283178;-68
2022/03/17 10:58:00;;;;;;;36.63;33.27;;;13.90;45.90;;;;;;20617;6808;277177;-68
2022/03/17 11:00:25;;;;;;;32.37;29.17;;;14.30;45.30;;;;;;20795;6808;118001;-68
2022/03/17 11:02:51;;;;;;;30.53;27.73;;;14.30;45.40;;;;;;20826;6808;117421;-68
2022/03/17 11:05:16;;;;;;;33.97;30.97;;;14.10;45.70;;;;;;20602;6808;277844;-67
2022/03/17 11:07:42;;;;;;;34.27;31.37;;;14.20;45.50;;;;;;20619;6808;278381;-68
2022/03/17 11:10:08;;;;;;;34.77;31.77;;;14.50;45.40;;;;;;20612;6808;306533;-67
2022/03/17 11:12:34;;;;;;;32.07;28.97;;;14.70;44.70;;;;;;20825;6808;123901;-67
2022/03/17 11:15:01;;;;;;;30.03;27.23;;;14.70;44.70;;;;;;20831;6808;121534;-68
2022/03/17 11:17:46;;;;;;;29.63;26.67;;;14.40;45.00;;;;;;20811;6808;140909;-68
2022/03/17 11:20:12;;;;;;;33.47;30.40;;;14.20;45.40;;;;;;20610;6808;277250;-72
2022/03/17 11:22:37;;;;;;;33.53;30.52;;;14.40;45.30;;;;;;20593;6808;337041;-69
2022/03/17 11:25:19;;;;;;;34.28;31.05;;;14.70;45.30;;;;;;20618;6808;313205;-70
2022/03/17 11:27:48;;;;;;;27.83;25.40;;;14.90;44.90;;;;;;20616;6808;307122;-70
2022/03/17 11:30:14;;;;;;;18.07;16.67;;;15.20;44.90;;;;;;20617;6808;307877;-71
2022/03/17 11:32:39;;;;;;;20.45;18.92;;;15.30;43.50;;;;;;20613;6808;278411;-70
2022/03/17 11:35:04;;;;;;;25.80;23.53;;;15.40;43.00;;;;;;20802;6808;117481;-70
2022/03/17 11:37:31;;;;;;;28.90;25.80;;;15.30;43.60;;;;;;20578;6808;313590;-70
2022/03/17 11:40:06;;;;;;;22.40;20.20;;;15.20;43.50;;;;;;20790;6808;118828;-71
2022/03/17 11:42:52;;;;;;;21.17;19.13;;;14.90;44.40;;;;;;20829;6808;117899;-69
2022/03/17 11:45:13;;;;;;;28.27;25.90;;;14.80;44.20;;;;;;20580;6808;303656;-71
2022/03/17 11:47:42;;;;;;;32.77;29.83;;;15.00;45.30;;;;;;20622;6807;308236;-71
2022/03/17 11:50:22;;;;;;;31.63;29.03;;;15.20;44.60;;;;;;20620;6808;279186;-71
2022/03/17 11:52:57;;;;;;;25.70;23.67;;;15.40;43.00;;;;;;20617;6808;277781;-70
2022/03/17 11:55:36;;;;;;;34.30;30.92;;;15.50;43.10;;;;;;20468;6823;337138;-72
2022/03/17 11:58:25;;;;;;;25.13;22.87;;;15.60;43.30;;;;;;20786;6823;121571;-79
2022/03/17 12:01:04;;;;;;;32.90;30.02;;;15.40;43.50;;;;;;20542;6826;307750;-75
2022/03/17 12:03:29;;;;;;;28.30;25.85;;;15.30;44.40;;;;;;20551;6823;277612;-72
2022/03/17 12:06:14;;;;;;;21.53;19.70;;;15.40;44.20;;;;;;20784;6823;117891;-74
2022/03/17 12:08:46;;;;;;;25.67;23.27;;;15.20;44.20;;;;;;20784;6823;117507;-72
2022/03/17 12:11:13;;;;;;;29.23;26.50;;;14.80;44.50;;;;;;20765;6823;118034;-71
2022/03/17 12:13:37;;;;;;;29.40;26.60;;;14.60;44.80;;;;;;20568;6823;328195;-72
2022/03/17 12:16:03;;;;;;;23.83;21.83;;;14.60;45.00;;;;;;20570;6823;278420;-71
2022/03/17 12:18:32;;;;;;;24.63;22.63;;;14.90;44.60;;;;;;20570;6823;307577;-77
2022/03/17 12:20:57;;;;;;;28.00;25.47;;;15.10;44.60;;;;;;20370;6841;121188;-73
2022/03/17 12:23:47;;;;;;;30.95;28.35;;;15.00;44.60;;;;;;20514;6838;306681;-71
2022/03/17 12:26:12;;;;;;;30.93;28.27;;;15.00;44.50;;;;;;20497;6838;308298;-72
2022/03/17 12:28:42;;;;;;;23.12;21.02;;;15.10;44.00;;;;;;20750;6832;118083;-70
2022/03/17 12:31:08;;;;;;;25.43;23.17;;;15.10;44.00;;;;;;20750;6832;116676;-71